sensor_id;sensor_type;location;lat;lon;timestamp;temperature;humidity
18721;DHT22;9489;50.948;3.114;2023-07-30T00:01:57;15.60;99.90
18721;DHT22;9489;50.948;3.114;2023-07-30T00:04:22;15.60;99.90
18721;DHT22;9489;50.948;3.114;2023-07-30T00:06:48;15.60;99.90
18721;DHT22;9489;50.948;3.114;2023-07-30T00:09:14;15.60;99.90
18721;DHT22;9489;50.948;3.114;2023-07-30T00:11:39;15.60;99.90
18721;DHT22;9489;50.948;3.114;2023-07-30T00:14:05;15.50;99.90
18721;DHT22;9489;50.948;3.114;2023-07-30T00:16:31;15.50;99.90
18721;DHT22;9489;50.948;3.114;2023-07-30T00:18:56;15.50;99.90
18721;DHT22;9489;50.948;3.114;2023-07-30T00:21:22;15.50;99.90
18721;DHT22;9489;50.948;3.114;2023-07-30T00:23:48;15.50;99.90
18721;DHT22;9489;50.948;3.114;2023-07-30T00:26:13;15.50;99.90
18721;DHT22;9489;50.948;3.114;2023-07-30T00:28:39;15.50;99.90
18721;DHT22;9489;50.948;3.114;2023-07-30T00:31:04;15.50;99.90
18721;DHT22;9489;50.948;3.114;2023-07-30T00:33:30;15.50;99.90
18721;DHT22;9489;50.948;3.114;2023-07-30T00:35:56;15.50;99.90
18721;DHT22;9489;50.948;3.114;2023-07-30T00:38:21;15.50;99.90
18721;DHT22;9489;50.948;3.114;2023-07-30T00:40:47;15.40;99.90
18721;DHT22;9489;50.948;3.114;2023-07-30T00:43:12;15.40;99.90
18721;DHT22;9489;50.948;3.114;2023-07-30T00:45:40;15.40;99.90
18721;DHT22;9489;50.948;3.114;2023-07-30T00:48:07;15.40;99.90
18721;DHT22;9489;50.948;3.114;2023-07-30T00:50:33;15.40;99.90
18721;DHT22;9489;50.948;3.114;2023-07-30T00:52:59;15.40;99.90
18721;DHT22;9489;50.948;3.114;2023-07-30T00:55:24;15.40;99.90
18721;DHT22;9489;50.948;3.114;2023-07-30T00:57:51;15.30;99.90
18721;DHT22;9489;50.948;3.114;2023-07-30T01:00:17;15.30;99.90
18721;DHT22;9489;50.948;3.114;2023-07-30T01:02:43;15.30;99.90
18721;DHT22;9489;50.948;3.114;2023-07-30T01:05:09;15.30;99.90
18721;DHT22;9489;50.948;3.114;2023-07-30T01:07:34;15.40;99.90
18721;DHT22;9489;50.948;3.114;2023-07-30T01:10:01;15.30;99.90
18721;DHT22;9489;50.948;3.114;2023-07-30T01:12:28;15.30;99.90
18721;DHT22;9489;50.948;3.114;2023-07-30T01:14:55;15.30;99.90
18721;DHT22;9489;50.948;3.114;2023-07-30T01:17:22;15.30;99.90
18721;DHT22;9489;50.948;3.114;2023-07-30T01:19:48;15.30;99.90
18721;DHT22;9489;50.948;3.114;2023-07-30T01:22:20;15.30;99.90
18721;DHT22;9489;50.948;3.114;2023-07-30T01:24:46;15.30;99.90
18721;DHT22;9489;50.948;3.114;2023-07-30T01:27:16;15.30;99.90
18721;DHT22;9489;50.948;3.114;2023-07-30T01:29:48;15.30;99.90
18721;DHT22;9489;50.948;3.114;2023-07-30T01:32:17;15.30;99.90
18721;DHT22;9489;50.948;3.114;2023-07-30T01:34:45;15.30;99.90
18721;DHT22;9489;50.948;3.114;2023-07-30T01:37:12;15.30;99.90
18721;DHT22;9489;50.948;3.114;2023-07-30T01:39:40;15.30;99.90
18721;DHT22;9489;50.948;3.114;2023-07-30T01:42:07;15.20;99.90
18721;DHT22;9489;50.948;3.114;2023-07-30T01:44:33;15.20;99.90
18721;DHT22;9489;50.948;3.114;2023-07-30T01:46:59;15.20;99.90
18721;DHT22;9489;50.948;3.114;2023-07-30T01:49:24;15.20;99.90
18721;DHT22;9489;50.948;3.114;2023-07-30T01:51:50;15.20;99.90
18721;DHT22;9489;50.948;3.114;2023-07-30T01:54:15;15.20;99.90
18721;DHT22;9489;50.948;3.114;2023-07-30T01:56:41;15.20;99.90
18721;DHT22;9489;50.948;3.114;2023-07-30T01:59:07;15.20;99.90
18721;DHT22;9489;50.948;3.114;2023-07-30T02:01:32;15.20;99.90
18721;DHT22;9489;50.948;3.114;2023-07-30T02:03:58;15.20;99.90
18721;DHT22;9489;50.948;3.114;2023-07-30T02:06:23;15.20;99.90
18721;DHT22;9489;50.948;3.114;2023-07-30T02:08:49;15.30;99.90
18721;DHT22;9489;50.948;3.114;2023-07-30T02:11:14;15.20;99.90
18721;DHT22;9489;50.948;3.114;2023-07-30T02:13:40;15.20;99.90
18721;DHT22;9489;50.948;3.114;2023-07-30T02:16:06;15.20;99.90
18721;DHT22;9489;50.948;3.114;2023-07-30T02:18:31;15.30;99.90
18721;DHT22;9489;50.948;3.114;2023-07-30T02:20:57;15.20;99.90
18721;DHT22;9489;50.948;3.114;2023-07-30T02:23:23;15.20;99.90
18721;DHT22;9489;50.948;3.114;2023-07-30T02:25:48;15.20;99.90
18721;DHT22;9489;50.948;3.114;2023-07-30T02:28:14;15.20;99.90
18721;DHT22;9489;50.948;3.114;2023-07-30T02:30:39;15.30;99.90
18721;DHT22;9489;50.948;3.114;2023-07-30T02:33:05;15.20;99.90
18721;DHT22;9489;50.948;3.114;2023-07-30T02:35:30;15.30;99.90
18721;DHT22;9489;50.948;3.114;2023-07-30T02:37:56;15.30;99.90
18721;DHT22;9489;50.948;3.114;2023-07-30T02:40:21;15.30;99.90
18721;DHT22;9489;50.948;3.114;2023-07-30T02:42:47;15.30;99.90
18721;DHT22;9489;50.948;3.114;2023-07-30T02:45:13;15.30;99.90
18721;DHT22;9489;50.948;3.114;2023-07-30T02:47:38;15.30;99.90
18721;DHT22;9489;50.948;3.114;2023-07-30T02:50:04;15.30;99.90
18721;DHT22;9489;50.948;3.114;2023-07-30T02:52:31;15.20;99.90
18721;DHT22;9489;50.948;3.114;2023-07-30T02:54:56;15.20;99.90
18721;DHT22;9489;50.948;3.114;2023-07-30T02:57:22;15.20;99.90
18721;DHT22;9489;50.948;3.114;2023-07-30T02:59:48;15.20;99.90
18721;DHT22;9489;50.948;3.114;2023-07-30T03:02:13;15.20;99.90
18721;DHT22;9489;50.948;3.114;2023-07-30T03:04:39;15.20;99.90
18721;DHT22;9489;50.948;3.114;2023-07-30T03:07:05;15.10;99.90
18721;DHT22;9489;50.948;3.114;2023-07-30T03:09:30;15.10;99.90
18721;DHT22;9489;50.948;3.114;2023-07-30T03:11:56;15.10;99.90
18721;DHT22;9489;50.948;3.114;2023-07-30T03:14:21;15.10;99.90
18721;DHT22;9489;50.948;3.114;2023-07-30T03:16:48;15.10;99.90
18721;DHT22;9489;50.948;3.114;2023-07-30T03:19:14;15.10;99.90
18721;DHT22;9489;50.948;3.114;2023-07-30T03:21:39;15.10;99.90
18721;DHT22;9489;50.948;3.114;2023-07-30T03:24:05;15.10;99.90
18721;DHT22;9489;50.948;3.114;2023-07-30T03:26:30;15.10;99.90
18721;DHT22;9489;50.948;3.114;2023-07-30T03:28:56;15.10;99.90
18721;DHT22;9489;50.948;3.114;2023-07-30T03:31:21;15.20;99.90
18721;DHT22;9489;50.948;3.114;2023-07-30T03:33:47;15.10;99.90
18721;DHT22;9489;50.948;3.114;2023-07-30T03:36:14;15.10;99.90
18721;DHT22;9489;50.948;3.114;2023-07-30T03:38:40;15.10;99.90
18721;DHT22;9489;50.948;3.114;2023-07-30T03:41:06;15.00;99.90
18721;DHT22;9489;50.948;3.114;2023-07-30T03:43:33;15.00;99.90
18721;DHT22;9489;50.948;3.114;2023-07-30T03:45:58;15.00;99.90
18721;DHT22;9489;50.948;3.114;2023-07-30T03:48:24;14.90;99.90
18721;DHT22;9489;50.948;3.114;2023-07-30T03:50:50;14.90;99.90
18721;DHT22;9489;50.948;3.114;2023-07-30T03:53:15;14.90;99.90
18721;DHT22;9489;50.948;3.114;2023-07-30T03:55:41;14.90;99.90
18721;DHT22;9489;50.948;3.114;2023-07-30T03:58:07;14.90;99.90
18721;DHT22;9489;50.948;3.114;2023-07-30T04:00:32;14.90;99.90
18721;DHT22;9489;50.948;3.114;2023-07-30T04:02:58;14.90;99.90
18721;DHT22;9489;50.948;3.114;2023-07-30T04:05:24;14.90;99.90
18721;DHT22;9489;50.948;3.114;2023-07-30T04:07:49;14.90;99.90
18721;DHT22;9489;50.948;3.114;2023-07-30T04:10:15;15.00;99.90
18721;DHT22;9489;50.948;3.114;2023-07-30T04:12:41;15.00;99.90
18721;DHT22;9489;50.948;3.114;2023-07-30T04:15:07;15.00;99.90
18721;DHT22;9489;50.948;3.114;2023-07-30T04:17:34;15.00;99.90
18721;DHT22;9489;50.948;3.114;2023-07-30T04:20:00;15.00;99.90
18721;DHT22;9489;50.948;3.114;2023-07-30T04:22:26;15.00;99.90
18721;DHT22;9489;50.948;3.114;2023-07-30T04:24:51;15.10;99.90
18721;DHT22;9489;50.948;3.114;2023-07-30T04:27:17;15.10;99.90
18721;DHT22;9489;50.948;3.114;2023-07-30T04:29:42;15.10;99.90
18721;DHT22;9489;50.948;3.114;2023-07-30T04:32:08;15.10;99.90
18721;DHT22;9489;50.948;3.114;2023-07-30T04:34:33;15.20;99.90
18721;DHT22;9489;50.948;3.114;2023-07-30T04:36:59;15.20;99.90
18721;DHT22;9489;50.948;3.114;2023-07-30T04:39:25;15.20;99.90
18721;DHT22;9489;50.948;3.114;2023-07-30T04:41:50;15.20;99.90
18721;DHT22;9489;50.948;3.114;2023-07-30T04:44:16;15.30;99.90
18721;DHT22;9489;50.948;3.114;2023-07-30T04:46:41;15.30;99.90
18721;DHT22;9489;50.948;3.114;2023-07-30T04:49:07;15.30;99.90
18721;DHT22;9489;50.948;3.114;2023-07-30T04:51:32;15.30;99.90
18721;DHT22;9489;50.948;3.114;2023-07-30T04:53:58;15.30;99.90
18721;DHT22;9489;50.948;3.114;2023-07-30T04:56:23;15.30;99.90
18721;DHT22;9489;50.948;3.114;2023-07-30T04:58:51;15.30;99.90
18721;DHT22;9489;50.948;3.114;2023-07-30T05:01:17;15.30;99.90
18721;DHT22;9489;50.948;3.114;2023-07-30T05:03:43;15.30;99.90
18721;DHT22;9489;50.948;3.114;2023-07-30T05:06:08;15.30;99.90
18721;DHT22;9489;50.948;3.114;2023-07-30T05:08:34;15.30;99.90
18721;DHT22;9489;50.948;3.114;2023-07-30T05:10:59;15.40;99.90
18721;DHT22;9489;50.948;3.114;2023-07-30T05:13:25;15.40;99.90
18721;DHT22;9489;50.948;3.114;2023-07-30T05:15:50;15.40;99.90
18721;DHT22;9489;50.948;3.114;2023-07-30T05:18:16;15.50;99.90
18721;DHT22;9489;50.948;3.114;2023-07-30T05:20:41;15.50;99.90
18721;DHT22;9489;50.948;3.114;2023-07-30T05:23:07;15.50;99.90
18721;DHT22;9489;50.948;3.114;2023-07-30T05:25:33;15.50;99.90
18721;DHT22;9489;50.948;3.114;2023-07-30T05:27:58;15.50;99.90
18721;DHT22;9489;50.948;3.114;2023-07-30T05:30:24;15.50;99.90
18721;DHT22;9489;50.948;3.114;2023-07-30T05:32:49;15.60;99.90
18721;DHT22;9489;50.948;3.114;2023-07-30T05:35:15;15.60;99.90
18721;DHT22;9489;50.948;3.114;2023-07-30T05:37:40;15.70;99.90
18721;DHT22;9489;50.948;3.114;2023-07-30T05:40:06;15.70;99.90
18721;DHT22;9489;50.948;3.114;2023-07-30T05:42:32;15.80;99.90
18721;DHT22;9489;50.948;3.114;2023-07-30T05:44:58;15.80;99.90
18721;DHT22;9489;50.948;3.114;2023-07-30T05:47:23;15.90;99.90
18721;DHT22;9489;50.948;3.114;2023-07-30T05:49:49;15.90;99.90
18721;DHT22;9489;50.948;3.114;2023-07-30T05:52:14;16.00;99.90
18721;DHT22;9489;50.948;3.114;2023-07-30T05:54:40;16.00;99.90
18721;DHT22;9489;50.948;3.114;2023-07-30T05:57:06;16.10;99.90
18721;DHT22;9489;50.948;3.114;2023-07-30T05:59:31;16.20;99.90
18721;DHT22;9489;50.948;3.114;2023-07-30T06:01:57;16.20;99.90
18721;DHT22;9489;50.948;3.114;2023-07-30T06:04:26;16.30;99.90
18721;DHT22;9489;50.948;3.114;2023-07-30T06:06:52;16.30;99.90
18721;DHT22;9489;50.948;3.114;2023-07-30T06:09:17;16.30;99.90
18721;DHT22;9489;50.948;3.114;2023-07-30T06:11:43;16.40;99.90
18721;DHT22;9489;50.948;3.114;2023-07-30T06:14:08;16.40;99.90
18721;DHT22;9489;50.948;3.114;2023-07-30T06:16:34;16.50;99.90
18721;DHT22;9489;50.948;3.114;2023-07-30T06:19:00;16.50;99.90
18721;DHT22;9489;50.948;3.114;2023-07-30T06:21:25;16.50;99.90
18721;DHT22;9489;50.948;3.114;2023-07-30T06:23:51;16.50;99.90
18721;DHT22;9489;50.948;3.114;2023-07-30T06:26:16;16.50;99.90
18721;DHT22;9489;50.948;3.114;2023-07-30T06:28:42;16.60;99.90
18721;DHT22;9489;50.948;3.114;2023-07-30T06:31:08;16.60;99.90
18721;DHT22;9489;50.948;3.114;2023-07-30T06:33:33;16.70;99.90
18721;DHT22;9489;50.948;3.114;2023-07-30T06:35:59;16.70;99.90
18721;DHT22;9489;50.948;3.114;2023-07-30T06:38:24;16.80;99.90
18721;DHT22;9489;50.948;3.114;2023-07-30T06:40:50;16.90;99.90
18721;DHT22;9489;50.948;3.114;2023-07-30T06:43:16;16.90;99.90
18721;DHT22;9489;50.948;3.114;2023-07-30T06:45:41;17.10;99.90
18721;DHT22;9489;50.948;3.114;2023-07-30T06:48:07;17.20;99.90
18721;DHT22;9489;50.948;3.114;2023-07-30T06:50:32;17.20;99.90
18721;DHT22;9489;50.948;3.114;2023-07-30T06:52:58;17.30;99.90
18721;DHT22;9489;50.948;3.114;2023-07-30T06:55:23;17.30;99.90
18721;DHT22;9489;50.948;3.114;2023-07-30T06:57:49;17.40;99.90
18721;DHT22;9489;50.948;3.114;2023-07-30T07:00:14;17.40;99.90
18721;DHT22;9489;50.948;3.114;2023-07-30T07:02:49;17.50;99.90
18721;DHT22;9489;50.948;3.114;2023-07-30T07:05:15;17.50;99.90
18721;DHT22;9489;50.948;3.114;2023-07-30T07:07:41;17.50;99.90
18721;DHT22;9489;50.948;3.114;2023-07-30T07:10:06;17.60;99.90
18721;DHT22;9489;50.948;3.114;2023-07-30T07:12:32;17.70;99.90
18721;DHT22;9489;50.948;3.114;2023-07-30T07:14:58;17.70;99.90
18721;DHT22;9489;50.948;3.114;2023-07-30T07:17:26;17.80;99.90
18721;DHT22;9489;50.948;3.114;2023-07-30T07:19:52;17.80;99.90
18721;DHT22;9489;50.948;3.114;2023-07-30T07:22:17;17.80;99.90
18721;DHT22;9489;50.948;3.114;2023-07-30T07:24:44;17.80;99.90
18721;DHT22;9489;50.948;3.114;2023-07-30T07:27:10;17.80;99.90
18721;DHT22;9489;50.948;3.114;2023-07-30T07:29:36;17.70;99.90
18721;DHT22;9489;50.948;3.114;2023-07-30T07:32:02;17.70;98.40
18721;DHT22;9489;50.948;3.114;2023-07-30T07:34:27;17.50;90.10
18721;DHT22;9489;50.948;3.114;2023-07-30T07:36:53;17.50;82.50
18721;DHT22;9489;50.948;3.114;2023-07-30T07:39:19;17.40;85.30
18721;DHT22;9489;50.948;3.114;2023-07-30T07:41:45;17.50;94.50
18721;DHT22;9489;50.948;3.114;2023-07-30T07:44:10;17.40;99.90
18721;DHT22;9489;50.948;3.114;2023-07-30T07:46:36;17.40;88.40
18721;DHT22;9489;50.948;3.114;2023-07-30T07:49:01;17.40;92.20
18721;DHT22;9489;50.948;3.114;2023-07-30T07:51:27;17.50;90.40
18721;DHT22;9489;50.948;3.114;2023-07-30T07:53:53;17.60;50.60
18721;DHT22;9489;50.948;3.114;2023-07-30T07:56:18;17.60;40.60
18721;DHT22;9489;50.948;3.114;2023-07-30T07:58:44;17.70;40.60
18721;DHT22;9489;50.948;3.114;2023-07-30T08:01:09;17.70;52.50
18721;DHT22;9489;50.948;3.114;2023-07-30T08:03:35;17.80;59.40
18721;DHT22;9489;50.948;3.114;2023-07-30T08:06:00;18.00;54.30
18721;DHT22;9489;50.948;3.114;2023-07-30T08:08:26;18.20;41.70
18721;DHT22;9489;50.948;3.114;2023-07-30T08:10:53;18.50;14.70
18721;DHT22;9489;50.948;3.114;2023-07-30T08:13:18;18.70;9.10
18721;DHT22;9489;50.948;3.114;2023-07-30T08:15:44;19.20;1.00
18721;DHT22;9489;50.948;3.114;2023-07-30T08:18:09;19.60;1.00
18721;DHT22;9489;50.948;3.114;2023-07-30T08:20:36;20.10;1.00
18721;DHT22;9489;50.948;3.114;2023-07-30T08:23:01;20.50;1.00
18721;DHT22;9489;50.948;3.114;2023-07-30T08:25:27;20.70;1.00
18721;DHT22;9489;50.948;3.114;2023-07-30T08:27:52;20.90;1.00
18721;DHT22;9489;50.948;3.114;2023-07-30T08:30:18;21.00;1.00
18721;DHT22;9489;50.948;3.114;2023-07-30T08:32:44;21.40;99.90
18721;DHT22;9489;50.948;3.114;2023-07-30T08:35:10;21.70;74.00
18721;DHT22;9489;50.948;3.114;2023-07-30T08:37:36;21.80;99.90
18721;DHT22;9489;50.948;3.114;2023-07-30T08:40:01;21.70;99.90
18721;DHT22;9489;50.948;3.114;2023-07-30T08:42:28;21.40;99.90
18721;DHT22;9489;50.948;3.114;2023-07-30T08:44:54;20.90;1.00
18721;DHT22;9489;50.948;3.114;2023-07-30T08:47:19;21.20;99.90
18721;DHT22;9489;50.948;3.114;2023-07-30T08:49:45;21.60;1.00
18721;DHT22;9489;50.948;3.114;2023-07-30T08:52:11;21.60;1.00
18721;DHT22;9489;50.948;3.114;2023-07-30T08:54:38;21.50;1.00
18721;DHT22;9489;50.948;3.114;2023-07-30T08:57:05;21.60;1.00
18721;DHT22;9489;50.948;3.114;2023-07-30T08:59:38;21.50;1.00
18721;DHT22;9489;50.948;3.114;2023-07-30T09:02:12;21.50;99.90
18721;DHT22;9489;50.948;3.114;2023-07-30T09:04:39;21.40;1.00
18721;DHT22;9489;50.948;3.114;2023-07-30T09:07:08;21.20;32.70
18721;DHT22;9489;50.948;3.114;2023-07-30T09:09:35;20.70;99.90
18721;DHT22;9489;50.948;3.114;2023-07-30T09:12:02;20.70;99.90
18721;DHT22;9489;50.948;3.114;2023-07-30T09:14:27;21.30;1.00
18721;DHT22;9489;50.948;3.114;2023-07-30T09:16:57;21.90;1.00
18721;DHT22;9489;50.948;3.114;2023-07-30T09:19:23;22.50;99.90
18721;DHT22;9489;50.948;3.114;2023-07-30T09:21:49;22.60;80.00
18721;DHT22;9489;50.948;3.114;2023-07-30T09:24:21;22.10;1.00
18721;DHT22;9489;50.948;3.114;2023-07-30T09:26:47;21.60;99.90
18721;DHT22;9489;50.948;3.114;2023-07-30T09:29:13;21.30;99.90
18721;DHT22;9489;50.948;3.114;2023-07-30T09:31:50;21.00;1.00
18721;DHT22;9489;50.948;3.114;2023-07-30T09:34:23;21.00;1.00
18721;DHT22;9489;50.948;3.114;2023-07-30T09:36:54;22.00;99.90
18721;DHT22;9489;50.948;3.114;2023-07-30T09:39:24;22.50;99.90
18721;DHT22;9489;50.948;3.114;2023-07-30T09:41:51;22.60;99.90
18721;DHT22;9489;50.948;3.114;2023-07-30T09:44:19;22.60;99.90
18721;DHT22;9489;50.948;3.114;2023-07-30T09:46:49;23.30;1.00
18721;DHT22;9489;50.948;3.114;2023-07-30T09:49:15;24.00;99.90
18721;DHT22;9489;50.948;3.114;2023-07-30T09:51:41;24.40;1.00
18721;DHT22;9489;50.948;3.114;2023-07-30T09:54:08;24.10;99.90
18721;DHT22;9489;50.948;3.114;2023-07-30T09:56:38;24.30;60.00
18721;DHT22;9489;50.948;3.114;2023-07-30T09:59:05;24.00;99.90
18721;DHT22;9489;50.948;3.114;2023-07-30T10:01:33;23.20;1.00
18721;DHT22;9489;50.948;3.114;2023-07-30T10:04:07;22.70;84.20
18721;DHT22;9489;50.948;3.114;2023-07-30T10:06:33;22.90;1.00
18721;DHT22;9489;50.948;3.114;2023-07-30T10:09:02;22.70;1.00
18721;DHT22;9489;50.948;3.114;2023-07-30T10:11:28;22.90;1.00
18721;DHT22;9489;50.948;3.114;2023-07-30T10:13:54;23.50;1.00
18721;DHT22;9489;50.948;3.114;2023-07-30T10:16:25;24.20;1.00
18721;DHT22;9489;50.948;3.114;2023-07-30T10:18:56;25.00;1.00
18721;DHT22;9489;50.948;3.114;2023-07-30T10:21:25;25.40;99.90
18721;DHT22;9489;50.948;3.114;2023-07-30T10:24:04;25.00;99.90
18721;DHT22;9489;50.948;3.114;2023-07-30T10:26:32;24.30;1.00
18721;DHT22;9489;50.948;3.114;2023-07-30T10:29:19;24.20;1.00
18721;DHT22;9489;50.948;3.114;2023-07-30T10:32:03;24.60;99.90
18721;DHT22;9489;50.948;3.114;2023-07-30T10:34:46;25.20;99.90
18721;DHT22;9489;50.948;3.114;2023-07-30T10:37:18;25.90;1.00
18721;DHT22;9489;50.948;3.114;2023-07-30T10:39:44;25.40;1.00
18721;DHT22;9489;50.948;3.114;2023-07-30T10:42:13;25.40;1.00
18721;DHT22;9489;50.948;3.114;2023-07-30T10:44:44;25.70;1.00
18721;DHT22;9489;50.948;3.114;2023-07-30T10:47:09;26.10;1.00
18721;DHT22;9489;50.948;3.114;2023-07-30T10:49:37;26.60;1.00
18721;DHT22;9489;50.948;3.114;2023-07-30T10:52:06;26.60;1.00
18721;DHT22;9489;50.948;3.114;2023-07-30T10:54:36;27.00;1.00
18721;DHT22;9489;50.948;3.114;2023-07-30T10:57:02;26.60;1.00
18721;DHT22;9489;50.948;3.114;2023-07-30T10:59:37;26.50;1.00
18721;DHT22;9489;50.948;3.114;2023-07-30T11:02:04;26.20;1.00
18721;DHT22;9489;50.948;3.114;2023-07-30T11:04:34;25.60;1.00
18721;DHT22;9489;50.948;3.114;2023-07-30T11:07:00;25.60;1.00
18721;DHT22;9489;50.948;3.114;2023-07-30T11:09:27;25.40;1.00
18721;DHT22;9489;50.948;3.114;2023-07-30T11:11:55;25.30;1.00
18721;DHT22;9489;50.948;3.114;2023-07-30T11:14:22;26.10;1.00
18721;DHT22;9489;50.948;3.114;2023-07-30T11:16:54;26.50;1.00
18721;DHT22;9489;50.948;3.114;2023-07-30T11:19:20;25.60;1.00
18721;DHT22;9489;50.948;3.114;2023-07-30T11:21:50;25.50;1.00
18721;DHT22;9489;50.948;3.114;2023-07-30T11:24:16;25.60;1.00
18721;DHT22;9489;50.948;3.114;2023-07-30T11:26:42;24.80;1.00
18721;DHT22;9489;50.948;3.114;2023-07-30T11:29:15;24.50;1.00
18721;DHT22;9489;50.948;3.114;2023-07-30T11:31:41;24.30;1.00
18721;DHT22;9489;50.948;3.114;2023-07-30T11:34:07;25.00;1.00
18721;DHT22;9489;50.948;3.114;2023-07-30T11:36:33;25.50;1.00
18721;DHT22;9489;50.948;3.114;2023-07-30T11:38:59;25.20;1.00
18721;DHT22;9489;50.948;3.114;2023-07-30T11:41:25;25.00;1.00
18721;DHT22;9489;50.948;3.114;2023-07-30T11:43:51;24.60;1.00
18721;DHT22;9489;50.948;3.114;2023-07-30T11:46:18;24.80;1.00
18721;DHT22;9489;50.948;3.114;2023-07-30T11:48:47;25.50;1.00
18721;DHT22;9489;50.948;3.114;2023-07-30T11:51:27;25.80;1.00
18721;DHT22;9489;50.948;3.114;2023-07-30T11:53:53;26.00;1.00
18721;DHT22;9489;50.948;3.114;2023-07-30T11:56:32;26.20;1.00
18721;DHT22;9489;50.948;3.114;2023-07-30T11:59:04;25.60;1.00
18721;DHT22;9489;50.948;3.114;2023-07-30T12:01:32;25.40;1.00
18721;DHT22;9489;50.948;3.114;2023-07-30T12:04:01;25.40;1.00
18721;DHT22;9489;50.948;3.114;2023-07-30T12:06:46;25.50;1.00
18721;DHT22;9489;50.948;3.114;2023-07-30T12:09:23;26.00;1.00
18721;DHT22;9489;50.948;3.114;2023-07-30T12:11:55;26.20;99.90
18721;DHT22;9489;50.948;3.114;2023-07-30T12:14:26;25.50;1.00
18721;DHT22;9489;50.948;3.114;2023-07-30T12:16:56;25.40;1.00
18721;DHT22;9489;50.948;3.114;2023-07-30T12:19:22;25.60;1.00
18721;DHT22;9489;50.948;3.114;2023-07-30T12:21:47;25.80;1.00
18721;DHT22;9489;50.948;3.114;2023-07-30T12:24:13;25.90;1.00
18721;DHT22;9489;50.948;3.114;2023-07-30T12:26:38;26.20;1.00
18721;DHT22;9489;50.948;3.114;2023-07-30T12:29:04;26.10;1.00
18721;DHT22;9489;50.948;3.114;2023-07-30T12:31:30;25.40;1.00
18721;DHT22;9489;50.948;3.114;2023-07-30T12:33:55;24.60;1.00
18721;DHT22;9489;50.948;3.114;2023-07-30T12:36:21;24.00;1.00
18721;DHT22;9489;50.948;3.114;2023-07-30T12:38:47;23.70;99.90
18721;DHT22;9489;50.948;3.114;2023-07-30T12:41:12;23.40;1.00
18721;DHT22;9489;50.948;3.114;2023-07-30T12:43:38;23.10;99.90
18721;DHT22;9489;50.948;3.114;2023-07-30T12:46:04;22.80;99.90
18721;DHT22;9489;50.948;3.114;2023-07-30T12:48:29;22.60;1.00
18721;DHT22;9489;50.948;3.114;2023-07-30T12:50:55;22.70;1.00
18721;DHT22;9489;50.948;3.114;2023-07-30T12:53:20;22.70;99.90
18721;DHT22;9489;50.948;3.114;2023-07-30T12:55:46;22.50;99.90
18721;DHT22;9489;50.948;3.114;2023-07-30T12:58:12;22.50;1.00
18721;DHT22;9489;50.948;3.114;2023-07-30T13:00:37;22.40;1.00
18721;DHT22;9489;50.948;3.114;2023-07-30T13:03:03;22.50;1.00
18721;DHT22;9489;50.948;3.114;2023-07-30T13:05:29;22.40;1.00
18721;DHT22;9489;50.948;3.114;2023-07-30T13:07:54;22.50;1.00
18721;DHT22;9489;50.948;3.114;2023-07-30T13:10:20;22.40;1.00
18721;DHT22;9489;50.948;3.114;2023-07-30T13:12:45;22.40;1.00
18721;DHT22;9489;50.948;3.114;2023-07-30T13:15:11;22.40;99.90
18721;DHT22;9489;50.948;3.114;2023-07-30T13:17:37;22.40;99.90
18721;DHT22;9489;50.948;3.114;2023-07-30T13:20:04;22.50;1.00
18721;DHT22;9489;50.948;3.114;2023-07-30T13:22:31;22.40;1.00
18721;DHT22;9489;50.948;3.114;2023-07-30T13:24:56;22.40;99.90
18721;DHT22;9489;50.948;3.114;2023-07-30T13:27:22;22.20;99.90
18721;DHT22;9489;50.948;3.114;2023-07-30T13:29:47;22.20;1.00
18721;DHT22;9489;50.948;3.114;2023-07-30T13:32:14;22.10;1.00
18721;DHT22;9489;50.948;3.114;2023-07-30T13:34:40;21.90;1.00
18721;DHT22;9489;50.948;3.114;2023-07-30T13:37:06;21.70;99.90
18721;DHT22;9489;50.948;3.114;2023-07-30T13:39:32;21.50;30.50
18721;DHT22;9489;50.948;3.114;2023-07-30T13:41:57;21.40;99.90
18721;DHT22;9489;50.948;3.114;2023-07-30T13:44:23;21.30;1.00
18721;DHT22;9489;50.948;3.114;2023-07-30T13:46:48;21.10;99.90
18721;DHT22;9489;50.948;3.114;2023-07-30T13:49:14;21.00;1.00
18721;DHT22;9489;50.948;3.114;2023-07-30T13:51:40;20.90;1.00
18721;DHT22;9489;50.948;3.114;2023-07-30T13:54:05;20.60;1.00
18721;DHT22;9489;50.948;3.114;2023-07-30T13:56:33;20.20;1.00
18721;DHT22;9489;50.948;3.114;2023-07-30T13:58:59;20.00;1.00
18721;DHT22;9489;50.948;3.114;2023-07-30T14:01:24;19.80;1.00
18721;DHT22;9489;50.948;3.114;2023-07-30T14:03:50;19.60;1.00
18721;DHT22;9489;50.948;3.114;2023-07-30T14:06:16;19.60;1.00
18721;DHT22;9489;50.948;3.114;2023-07-30T14:08:41;19.60;1.00
18721;DHT22;9489;50.948;3.114;2023-07-30T14:11:07;19.50;1.00
18721;DHT22;9489;50.948;3.114;2023-07-30T14:13:33;19.50;1.00
18721;DHT22;9489;50.948;3.114;2023-07-30T14:15:59;19.40;1.00
18721;DHT22;9489;50.948;3.114;2023-07-30T14:18:25;19.30;9.60
18721;DHT22;9489;50.948;3.114;2023-07-30T14:20:51;19.10;54.40
18721;DHT22;9489;50.948;3.114;2023-07-30T14:23:17;18.90;99.90
18721;DHT22;9489;50.948;3.114;2023-07-30T14:25:43;18.90;99.90
18721;DHT22;9489;50.948;3.114;2023-07-30T14:28:09;18.90;99.90
18721;DHT22;9489;50.948;3.114;2023-07-30T14:30:34;19.00;99.90
18721;DHT22;9489;50.948;3.114;2023-07-30T14:33:01;19.10;93.50
18721;DHT22;9489;50.948;3.114;2023-07-30T14:35:28;19.20;65.70
18721;DHT22;9489;50.948;3.114;2023-07-30T14:37:54;19.30;39.60
18721;DHT22;9489;50.948;3.114;2023-07-30T14:40:19;19.30;30.10
18721;DHT22;9489;50.948;3.114;2023-07-30T14:42:46;19.30;20.80
18721;DHT22;9489;50.948;3.114;2023-07-30T14:45:11;19.30;17.70
18721;DHT22;9489;50.948;3.114;2023-07-30T14:47:37;19.40;3.50
18721;DHT22;9489;50.948;3.114;2023-07-30T14:50:05;19.20;39.90
18721;DHT22;9489;50.948;3.114;2023-07-30T14:52:31;19.20;70.50
18721;DHT22;9489;50.948;3.114;2023-07-30T14:54:56;19.10;74.50
18721;DHT22;9489;50.948;3.114;2023-07-30T14:57:22;19.00;94.00
18721;DHT22;9489;50.948;3.114;2023-07-30T14:59:48;19.10;98.80
18721;DHT22;9489;50.948;3.114;2023-07-30T15:02:13;19.00;99.90
18721;DHT22;9489;50.948;3.114;2023-07-30T15:04:39;19.00;99.90
18721;DHT22;9489;50.948;3.114;2023-07-30T15:07:04;19.00;99.90
18721;DHT22;9489;50.948;3.114;2023-07-30T15:09:30;18.90;99.90
18721;DHT22;9489;50.948;3.114;2023-07-30T15:12:00;18.80;99.90
18721;DHT22;9489;50.948;3.114;2023-07-30T15:14:26;18.70;99.90
18721;DHT22;9489;50.948;3.114;2023-07-30T15:16:52;18.60;99.90
18721;DHT22;9489;50.948;3.114;2023-07-30T15:19:17;18.60;99.90
18721;DHT22;9489;50.948;3.114;2023-07-30T15:21:43;18.50;99.90
18721;DHT22;9489;50.948;3.114;2023-07-30T15:24:08;18.50;99.90
18721;DHT22;9489;50.948;3.114;2023-07-30T15:26:34;18.30;99.90
18721;DHT22;9489;50.948;3.114;2023-07-30T15:29:00;18.20;99.90
18721;DHT22;9489;50.948;3.114;2023-07-30T15:31:27;18.10;99.90
18721;DHT22;9489;50.948;3.114;2023-07-30T15:33:52;18.00;99.90
18721;DHT22;9489;50.948;3.114;2023-07-30T15:36:22;18.00;99.90
18721;DHT22;9489;50.948;3.114;2023-07-30T15:38:48;17.90;99.90
18721;DHT22;9489;50.948;3.114;2023-07-30T15:41:22;17.90;99.90
18721;DHT22;9489;50.948;3.114;2023-07-30T15:43:48;17.80;99.90
18721;DHT22;9489;50.948;3.114;2023-07-30T15:46:14;17.70;99.90